Time;durP1;ratioP1;P1;durP2;ratioP2;P2;SDS_P1;SDS_P2;PMS_P1;PMS_P2;Temp;Humidity;BMP_temperature;BMP_pressure;BME280_temperature;BME280_humidity;BME280_pressure;Samples;Min_cycle;Max_cycle;Signal;HPM_P1;HPM_P2
2022/09/29 00:01:37;;;;;;;5.90;5.43;;;14.70;99.90;;;;;;5989284;29;20839;-67
2022/09/29 00:04:40;;;;;;;7.03;5.77;;;14.80;99.90;;;;;;5988218;29;21060;-68
2022/09/29 00:07:43;;;;;;;5.87;5.40;;;14.80;99.90;;;;;;5988595;29;20552;-66
2022/09/29 00:10:47;;;;;;;6.93;5.70;;;14.70;99.90;;;;;;5987710;29;20497;-68
2022/09/29 00:13:51;;;;;;;7.57;6.93;;;14.60;99.90;;;;;;5986267;29;20493;-68
2022/09/29 00:16:54;;;;;;;7.57;6.87;;;14.60;99.90;;;;;;5987013;29;20579;-67
2022/09/29 00:19:57;;;;;;;6.27;5.77;;;14.60;99.90;;;;;;5988382;29;20485;-69
2022/09/29 00:23:00;;;;;;;6.20;5.67;;;14.70;99.90;;;;;;5989420;29;20489;-68
2022/09/29 00:26:06;;;;;;;6.73;6.17;;;14.70;99.90;;;;;;5989950;29;20564;-68
2022/09/29 00:29:10;;;;;;;5.90;5.43;;;14.80;99.90;;;;;;5988684;29;20516;-68
2022/09/29 00:32:14;;;;;;;6.13;5.63;;;14.80;99.90;;;;;;5988506;29;20871;-68
2022/09/29 00:35:17;;;;;;;7.00;6.07;;;14.80;99.90;;;;;;5988974;29;20501;-69
2022/09/29 00:38:20;;;;;;;6.70;6.00;;;14.70;99.90;;;;;;5988833;29;20964;-69
2022/09/29 00:41:28;;;;;;;6.27;5.63;;;14.80;99.90;;;;;;5980697;29;20488;-69
2022/09/29 00:44:59;;;;;;;7.97;7.10;;;14.80;99.90;;;;;;5989818;29;20492;-68
2022/09/29 00:48:09;;;;;;;7.03;6.23;;;14.70;99.90;;;;;;5983638;29;20495;-69
2022/09/29 00:51:13;;;;;;;7.30;6.70;;;14.80;99.90;;;;;;5993373;29;20477;-69
2022/09/29 00:54:17;;;;;;;7.47;6.23;;;14.80;99.90;;;;;;5993104;29;20493;-68
2022/09/29 00:57:28;;;;;;;7.23;6.53;;;14.70;99.90;;;;;;5992971;29;20489;-68
2022/09/29 01:00:32;;;;;;;7.10;6.40;;;14.70;99.90;;;;;;5995180;29;20496;-69
2022/09/29 01:03:38;;;;;;;7.80;6.50;;;14.70;99.90;;;;;;5995266;29;20545;-68
2022/09/29 01:06:44;;;;;;;6.80;6.10;;;14.70;99.90;;;;;;5993103;29;20481;-69
2022/09/29 01:09:49;;;;;;;10.47;7.33;;;14.70;99.90;;;;;;5992720;29;20473;-69
2022/09/29 01:12:54;;;;;;;7.53;6.83;;;14.70;99.90;;;;;;5992705;29;20449;-69
2022/09/29 01:15:58;;;;;;;7.03;6.43;;;14.70;99.90;;;;;;5992761;29;20583;-69
2022/09/29 01:19:06;;;;;;;9.80;6.57;;;14.80;99.90;;;;;;5992785;29;20477;-68
2022/09/29 01:22:20;;;;;;;7.30;6.70;;;14.70;99.90;;;;;;5992961;29;20481;-69
2022/09/29 01:25:48;;;;;;;7.90;6.40;;;14.70;99.90;;;;;;5993025;29;20518;-69
2022/09/29 01:29:35;;;;;;;7.43;6.70;;;14.70;99.90;;;;;;5992780;29;20484;-69
2022/09/29 01:32:58;;;;;;;7.10;6.10;;;14.60;99.90;;;;;;5992801;29;20482;-69
2022/09/29 01:36:10;;;;;;;6.47;5.87;;;14.50;99.90;;;;;;5992400;29;20489;-69
2022/09/29 01:39:23;;;;;;;6.50;6.00;;;14.50;99.90;;;;;;5992337;29;20500;-69
2022/09/29 01:42:32;;;;;;;5.30;4.90;;;14.50;99.90;;;;;;5992600;29;20492;-69
2022/09/29 01:45:40;;;;;;;5.77;4.23;;;14.40;99.90;;;;;;5988430;29;20485;-69
2022/09/29 01:48:48;;;;;;;4.50;4.10;;;14.40;99.90;;;;;;5991915;29;20489;-69
2022/09/29 01:51:55;;;;;;;4.10;3.80;;;14.40;99.90;;;;;;6014975;29;20461;-69
2022/09/29 01:55:02;;;;;;;4.77;4.27;;;14.30;99.90;;;;;;6014927;29;20524;-67
2022/09/29 01:58:09;;;;;;;3.90;3.50;;;14.30;99.90;;;;;;6014933;29;20544;-69
2022/09/29 02:01:14;;;;;;;4.40;3.40;;;14.30;99.90;;;;;;6014738;29;20473;-67
2022/09/29 02:04:23;;;;;;;3.17;2.87;;;14.30;99.90;;;;;;6014748;29;20964;-68
2022/09/29 02:07:31;;;;;;;3.90;3.17;;;14.30;99.90;;;;;;6014285;29;21107;-68
2022/09/29 02:10:40;;;;;;;2.73;2.20;;;14.20;99.90;;;;;;6014361;29;21033;-68
2022/09/29 02:13:49;;;;;;;3.17;2.17;;;14.20;99.90;;;;;;6014127;29;20545;-68
2022/09/29 02:16:57;;;;;;;3.23;2.93;;;14.10;99.90;;;;;;6014574;29;20487;-68
2022/09/29 02:20:02;;;;;;;2.40;2.20;;;14.10;99.90;;;;;;6014758;29;20472;-69
2022/09/29 02:23:05;;;;;;;2.27;1.60;;;14.00;99.90;;;;;;6014305;29;20483;-70
2022/09/29 02:26:10;;;;;;;1.97;1.87;;;13.90;99.90;;;;;;6014630;29;20529;-69
2022/09/29 02:29:14;;;;;;;1.97;1.77;;;13.90;99.90;;;;;;6014003;29;20480;-67
2022/09/29 02:32:18;;;;;;;2.10;1.90;;;13.90;99.90;;;;;;6014066;29;20487;-67
2022/09/29 02:35:26;;;;;;;4.00;2.30;;;13.90;99.90;;;;;;6014211;29;20825;-67
2022/09/29 02:38:42;;;;;;;2.10;1.83;;;13.70;99.90;;;;;;6013673;29;20984;-68
2022/09/29 02:41:53;;;;;;;2.00;1.83;;;13.60;99.90;;;;;;6017558;29;20540;-68
2022/09/29 02:45:18;;;;;;;2.93;1.70;;;13.60;99.90;;;;;;6014369;29;20532;-68
2022/09/29 02:48:55;;;;;;;1.73;1.63;;;13.50;99.90;;;;;;6013737;29;20492;-68
2022/09/29 02:52:06;;;;;;;2.00;1.90;;;13.50;99.90;;;;;;5981522;29;20487;-67
2022/09/29 02:55:18;;;;;;;1.77;1.60;;;13.40;99.90;;;;;;6013927;29;20492;-68
2022/09/29 02:58:29;;;;;;;1.60;1.23;;;13.30;99.90;;;;;;6013785;29;20500;-66
2022/09/29 03:01:34;;;;;;;1.60;1.50;;;13.30;99.90;;;;;;6013618;29;20481;-67
2022/09/29 03:04:37;;;;;;;1.67;1.40;;;13.20;99.90;;;;;;6013754;29;20488;-67
2022/09/29 03:07:42;;;;;;;1.30;1.20;;;13.20;99.90;;;;;;6013278;29;20498;-68
2022/09/29 03:10:45;;;;;;;1.60;1.30;;;13.30;99.90;;;;;;6012692;29;20480;-67
2022/09/29 03:13:48;;;;;;;1.07;1.00;;;13.20;99.90;;;;;;6013491;29;20602;-68
2022/09/29 03:16:51;;;;;;;3.40;1.07;;;13.20;99.90;;;;;;6013091;29;20481;-68
2022/09/29 03:19:54;;;;;;;0.70;0.70;;;13.20;99.90;;;;;;6013489;29;20480;-68
2022/09/29 03:22:59;;;;;;;0.90;0.90;;;13.20;99.90;;;;;;6013301;29;20496;-68
2022/09/29 03:26:02;;;;;;;0.83;0.83;;;13.20;99.90;;;;;;6012852;29;21021;-67
2022/09/29 03:29:06;;;;;;;3.07;0.80;;;13.20;99.90;;;;;;6012860;29;20503;-67
2022/09/29 03:32:09;;;;;;;0.60;0.60;;;13.20;99.90;;;;;;6013027;29;20480;-68
2022/09/29 03:35:12;;;;;;;0.63;0.60;;;13.20;99.90;;;;;;6012565;29;20504;-67
2022/09/29 03:38:17;;;;;;;0.70;0.70;;;13.20;99.90;;;;;;6013085;29;20499;-67
2022/09/29 03:41:20;;;;;;;0.80;0.80;;;13.20;99.90;;;;;;6012819;29;20488;-67
2022/09/29 03:44:23;;;;;;;0.80;0.70;;;13.20;99.90;;;;;;6013086;29;20480;-67
2022/09/29 03:47:26;;;;;;;1.73;0.63;;;13.20;99.90;;;;;;6012646;29;20484;-68
2022/09/29 03:50:29;;;;;;;0.50;0.50;;;13.20;99.90;;;;;;6012919;29;20507;-68
2022/09/29 03:53:35;;;;;;;0.83;0.70;;;13.20;99.90;;;;;;6005646;29;20489;-68
2022/09/29 03:56:39;;;;;;;0.70;0.70;;;13.20;99.90;;;;;;6022753;29;20972;-68
2022/09/29 03:59:42;;;;;;;1.07;0.60;;;13.30;99.90;;;;;;6022841;29;20521;-68
2022/09/29 04:02:47;;;;;;;1.00;0.80;;;13.30;99.90;;;;;;6022036;29;20492;-67
2022/09/29 04:05:51;;;;;;;0.80;0.60;;;13.30;99.90;;;;;;6019802;29;20548;-67
2022/09/29 04:08:55;;;;;;;1.03;0.70;;;13.20;99.90;;;;;;6019767;29;20544;-69
2022/09/29 04:11:58;;;;;;;0.60;0.60;;;13.20;99.90;;;;;;6013661;29;20512;-69
2022/09/29 04:15:02;;;;;;;0.60;0.57;;;13.20;99.90;;;;;;6013648;29;20480;-70
2022/09/29 04:18:05;;;;;;;0.60;0.60;;;13.20;99.90;;;;;;6012964;29;20849;-69
2022/09/29 04:21:09;;;;;;;1.20;0.60;;;13.30;99.90;;;;;;6014859;29;20480;-69
2022/09/29 04:24:13;;;;;;;0.90;0.80;;;13.30;99.90;;;;;;6025358;29;20480;-69
2022/09/29 04:27:17;;;;;;;1.13;1.03;;;13.20;99.90;;;;;;6031002;29;20475;-68
2022/09/29 04:30:20;;;;;;;1.20;0.53;;;13.20;99.90;;;;;;6024904;29;20480;-68
2022/09/29 04:33:23;;;;;;;1.43;0.80;;;13.10;99.90;;;;;;6017724;29;20487;-68
2022/09/29 04:36:26;;;;;;;0.80;0.80;;;13.10;99.90;;;;;;6017824;29;20492;-68
2022/09/29 04:39:31;;;;;;;0.50;0.50;;;13.10;99.90;;;;;;6017337;29;20487;-68
2022/09/29 04:42:34;;;;;;;1.07;0.70;;;13.10;99.90;;;;;;6017164;29;20832;-68
2022/09/29 04:45:37;;;;;;;1.00;0.50;;;13.00;99.90;;;;;;6017705;29;20484;-69
2022/09/29 04:48:40;;;;;;;0.50;0.50;;;13.00;99.90;;;;;;6016677;29;20495;-69
2022/09/29 04:51:44;;;;;;;0.77;0.60;;;13.00;99.90;;;;;;6017249;29;20796;-70
2022/09/29 04:54:48;;;;;;;0.97;0.83;;;13.00;99.90;;;;;;6009078;29;20536;-69
2022/09/29 04:57:51;;;;;;;1.23;0.60;;;12.90;99.90;;;;;;6017020;29;20495;-69
2022/09/29 05:00:55;;;;;;;0.90;0.90;;;12.90;99.90;;;;;;6016949;29;20456;-69
2022/09/29 05:03:58;;;;;;;0.90;0.60;;;12.90;99.90;;;;;;6017351;29;20447;-69
2022/09/29 05:07:01;;;;;;;1.80;0.50;;;12.80;99.90;;;;;;6016599;29;20452;-66
2022/09/29 05:10:07;;;;;;;0.90;0.53;;;12.90;99.90;;;;;;6017026;29;20538;-68
2022/09/29 05:13:10;;;;;;;0.80;0.80;;;12.90;99.90;;;;;;6016584;29;20575;-67
2022/09/29 05:16:13;;;;;;;0.70;0.70;;;12.90;99.90;;;;;;6016663;29;20483;-67
2022/09/29 05:19:16;;;;;;;1.33;1.00;;;12.80;99.90;;;;;;6016851;29;20495;-66
2022/09/29 05:22:23;;;;;;;0.70;0.70;;;12.80;99.90;;;;;;6016623;29;20525;-69
2022/09/29 05:25:28;;;;;;;1.23;0.70;;;12.80;99.90;;;;;;6015863;29;20492;-69
2022/09/29 05:28:31;;;;;;;0.97;0.93;;;12.80;99.90;;;;;;6013881;29;20491;-68
2022/09/29 05:31:34;;;;;;;1.13;0.90;;;12.80;99.90;;;;;;6016207;29;21134;-69
2022/09/29 05:34:37;;;;;;;2.30;1.37;;;12.80;99.90;;;;;;6015465;29;20559;-69
2022/09/29 05:37:40;;;;;;;0.90;0.90;;;12.70;99.90;;;;;;6016437;29;20480;-68
2022/09/29 05:40:45;;;;;;;0.60;0.60;;;12.70;99.90;;;;;;6016242;29;20544;-68
2022/09/29 05:43:49;;;;;;;2.10;1.03;;;12.80;99.90;;;;;;6015974;29;20476;-68
2022/09/29 05:46:52;;;;;;;2.50;0.90;;;12.80;99.90;;;;;;6015900;29;20795;-68
2022/09/29 05:49:55;;;;;;;1.30;1.20;;;12.90;99.90;;;;;;6016137;29;20484;-69
2022/09/29 05:53:02;;;;;;;1.27;1.17;;;13.00;99.90;;;;;;6015710;29;21162;-68
2022/09/29 05:56:09;;;;;;;2.17;1.97;;;13.00;99.90;;;;;;6015769;29;20576;-69
2022/09/29 05:59:12;;;;;;;1.63;1.37;;;13.00;99.90;;;;;;6007316;29;20484;-70
2022/09/29 06:02:17;;;;;;;2.20;1.00;;;12.90;99.90;;;;;;6015254;29;20841;-69
2022/09/29 06:05:20;;;;;;;1.33;1.10;;;12.90;99.90;;;;;;6016557;29;20473;-68
2022/09/29 06:08:24;;;;;;;2.20;1.17;;;12.90;99.90;;;;;;6015800;29;20488;-69
2022/09/29 06:11:31;;;;;;;1.30;1.00;;;12.80;99.90;;;;;;6015697;29;20491;-69
2022/09/29 06:14:34;;;;;;;1.00;0.90;;;12.90;99.90;;;;;;6015855;29;20517;-68
2022/09/29 06:17:37;;;;;;;1.40;1.30;;;12.90;99.90;;;;;;6019593;29;20504;-69
2022/09/29 06:20:40;;;;;;;0.77;0.70;;;13.00;99.90;;;;;;6018382;29;20550;-70
2022/09/29 06:23:44;;;;;;;1.10;1.00;;;13.10;99.90;;;;;;6016166;29;20477;-69
2022/09/29 06:26:48;;;;;;;1.57;0.97;;;13.10;99.90;;;;;;6015888;29;20488;-69
2022/09/29 06:29:51;;;;;;;1.10;1.07;;;13.10;99.90;;;;;;6014951;29;20488;-68
2022/09/29 06:32:55;;;;;;;1.73;1.63;;;13.00;99.90;;;;;;6015113;29;20782;-68
2022/09/29 06:39:21;;;;;;;1.47;1.33;;;12.90;99.90;;;;;;6014733;29;20572;-68
2022/09/29 06:42:25;;;;;;;1.60;0.93;;;12.90;99.90;;;;;;6015176;29;20483;-69
2022/09/29 06:45:28;;;;;;;1.17;1.07;;;12.90;99.90;;;;;;6015523;29;20472;-69
2022/09/29 06:48:32;;;;;;;0.90;0.90;;;12.80;99.90;;;;;;6015329;29;20503;-69
2022/09/29 06:51:36;;;;;;;6.53;1.60;;;12.60;99.90;;;;;;6015334;29;20480;-68
2022/09/29 06:54:48;;;;;;;1.50;1.23;;;12.60;99.90;;;;;;6014445;29;20504;-68
2022/09/29 06:57:52;;;;;;;1.43;1.33;;;12.40;99.90;;;;;;6014811;29;20492;-67
2022/09/29 07:00:56;;;;;;;0.97;0.90;;;12.30;99.90;;;;;;6003229;29;20465;-67
2022/09/29 07:04:01;;;;;;;1.40;1.30;;;12.20;99.90;;;;;;5991710;29;20457;-68
2022/09/29 07:07:04;;;;;;;1.87;1.40;;;11.90;99.90;;;;;;5991484;29;20473;-68
2022/09/29 07:10:08;;;;;;;1.30;1.00;;;12.00;99.90;;;;;;5991621;29;20484;-67
2022/09/29 07:13:13;;;;;;;1.90;1.00;;;12.00;99.90;;;;;;5991999;29;20552;-68
2022/09/29 07:16:16;;;;;;;1.23;1.17;;;12.10;99.90;;;;;;5991666;29;21021;-67
2022/09/29 07:19:20;;;;;;;1.23;0.83;;;12.40;99.90;;;;;;5991134;29;20557;-67
2022/09/29 07:22:24;;;;;;;1.90;1.40;;;12.40;99.90;;;;;;5991765;29;20560;-67
2022/09/29 07:25:27;;;;;;;1.17;0.70;;;12.60;99.90;;;;;;5991291;29;20489;-68
2022/09/29 07:28:53;;;;;;;2.70;1.00;;;12.70;99.90;;;;;;5991586;29;20908;-68
2022/09/29 07:31:56;;;;;;;1.70;1.03;;;12.70;99.90;;;;;;5991317;29;20492;-68
2022/09/29 07:34:59;;;;;;;1.20;0.97;;;12.70;99.90;;;;;;5991325;29;20568;-69
2022/09/29 07:38:02;;;;;;;1.20;1.10;;;12.80;99.90;;;;;;5991065;29;20492;-69
2022/09/29 07:41:08;;;;;;;1.50;1.03;;;12.90;99.90;;;;;;5991620;29;20550;-69
2022/09/29 07:44:12;;;;;;;2.20;1.30;;;12.80;99.90;;;;;;5990548;29;20579;-69
2022/09/29 07:47:16;;;;;;;1.47;1.37;;;12.80;99.90;;;;;;5990552;29;20484;-68
2022/09/29 07:50:19;;;;;;;1.03;1.00;;;13.00;99.90;;;;;;5990717;29;20496;-68
2022/09/29 07:53:22;;;;;;;2.03;1.03;;;13.10;99.90;;;;;;5990780;29;20481;-68
2022/09/29 07:56:26;;;;;;;1.00;0.80;;;13.00;99.90;;;;;;5990596;29;20496;-68
2022/09/29 07:59:30;;;;;;;0.93;0.93;;;12.90;99.90;;;;;;5990037;29;20473;-67
2022/09/29 08:02:33;;;;;;;1.57;1.20;;;12.90;99.90;;;;;;5990254;29;20973;-67
2022/09/29 08:05:38;;;;;;;1.10;1.10;;;12.90;99.90;;;;;;5989057;29;20500;-64
2022/09/29 08:08:42;;;;;;;1.10;1.00;;;12.90;99.90;;;;;;5971484;29;20490;-64
2022/09/29 08:11:59;;;;;;;1.27;0.90;;;13.00;99.90;;;;;;5985568;29;20485;-66
2022/09/29 08:15:11;;;;;;;1.00;1.00;;;12.80;99.90;;;;;;5980743;29;20482;-64
2022/09/29 08:18:14;;;;;;;1.30;0.83;;;12.90;99.90;;;;;;5984136;29;20489;-64
2022/09/29 08:21:17;;;;;;;1.23;1.13;;;12.90;99.90;;;;;;6007771;29;20488;-64
2022/09/29 08:24:21;;;;;;;1.30;1.20;;;13.00;99.90;;;;;;6011904;29;20480;-63
2022/09/29 08:27:24;;;;;;;2.13;1.50;;;13.10;99.90;;;;;;6011896;29;20992;-64
2022/09/29 08:30:29;;;;;;;3.73;1.30;;;13.20;99.90;;;;;;6011666;29;20480;-65
2022/09/29 08:33:32;;;;;;;1.30;1.20;;;13.30;99.90;;;;;;6012262;29;20476;-64
2022/09/29 08:36:36;;;;;;;1.60;1.50;;;13.30;99.90;;;;;;6012313;29;20469;-64
2022/09/29 08:39:39;;;;;;;1.20;1.10;;;13.30;99.90;;;;;;6011751;29;20492;-64
2022/09/29 08:42:51;;;;;;;1.13;1.03;;;13.40;99.90;;;;;;6012151;29;20486;-64
2022/09/29 08:46:02;;;;;;;2.77;2.57;;;13.40;99.90;;;;;;6010544;29;20496;-64
2022/09/29 08:49:11;;;;;;;0.90;0.83;;;13.50;99.90;;;;;;6012273;29;20961;-68
2022/09/29 08:52:22;;;;;;;1.60;0.97;;;13.50;99.90;;;;;;6012422;29;20479;-69
2022/09/29 08:55:33;;;;;;;0.97;0.87;;;13.40;99.90;;;;;;6012609;29;20476;-67
2022/09/29 08:58:39;;;;;;;0.70;0.60;;;13.50;99.90;;;;;;6011983;29;20491;-67
2022/09/29 09:01:55;;;;;;;0.60;0.60;;;13.50;99.90;;;;;;6011802;29;20476;-67
2022/09/29 09:05:12;;;;;;;0.63;0.60;;;13.70;99.90;;;;;;6012012;29;20980;-67
2022/09/29 09:08:26;;;;;;;1.03;0.90;;;13.90;99.90;;;;;;6009435;29;20480;-68
2022/09/29 09:11:41;;;;;;;1.00;1.00;;;14.00;99.90;;;;;;6011590;29;20799;-68
2022/09/29 09:14:59;;;;;;;1.37;0.70;;;13.90;99.90;;;;;;6016685;29;20484;-68
2022/09/29 09:18:33;;;;;;;1.00;0.90;;;13.80;99.90;;;;;;6015530;29;20492;-68
2022/09/29 09:21:41;;;;;;;0.70;0.70;;;13.70;99.90;;;;;;6015425;29;20543;-69
2022/09/29 09:24:49;;;;;;;0.90;0.90;;;13.70;99.90;;;;;;6014989;29;20972;-69
2022/09/29 09:28:03;;;;;;;0.80;0.70;;;13.70;99.90;;;;;;6015523;29;20468;-70
2022/09/29 09:31:10;;;;;;;10.03;8.80;;;13.50;99.90;;;;;;6016353;29;20429;-68
2022/09/29 09:34:19;;;;;;;9.70;8.10;;;13.30;99.90;;;;;;6016283;29;20600;-69
2022/09/29 09:37:39;;;;;;;7.10;6.40;;;13.30;99.90;;;;;;6015625;29;21008;-70
2022/09/29 09:40:46;;;;;;;3.80;3.50;;;13.20;99.90;;;;;;6016066;29;20480;-69
2022/09/29 09:43:53;;;;;;;4.90;4.40;;;13.20;99.90;;;;;;6015952;29;20495;-69
2022/09/29 09:47:01;;;;;;;3.53;3.10;;;13.10;99.90;;;;;;6015733;29;20480;-67
2022/09/29 09:50:14;;;;;;;1.40;1.30;;;13.10;99.90;;;;;;6015522;29;20484;-69
2022/09/29 09:53:22;;;;;;;1.47;1.37;;;13.00;99.90;;;;;;6015980;29;20491;-68
2022/09/29 09:56:44;;;;;;;1.57;1.30;;;12.90;99.90;;;;;;6015685;29;20563;-68
2022/09/29 10:00:02;;;;;;;1.40;1.30;;;12.80;99.90;;;;;;6015224;29;20484;-68
2022/09/29 10:03:07;;;;;;;1.70;1.60;;;12.70;99.90;;;;;;6015484;29;20488;-68
2022/09/29 10:06:11;;;;;;;2.03;1.57;;;12.60;99.90;;;;;;6015216;29;20485;-68
2022/09/29 10:09:16;;;;;;;1.87;1.20;;;12.70;99.90;;;;;;6014832;29;20476;-69
2022/09/29 10:12:21;;;;;;;1.10;1.10;;;12.80;99.90;;;;;;6014605;29;20839;-69
2022/09/29 10:15:31;;;;;;;1.63;1.50;;;12.80;99.90;;;;;;6006368;29;20484;-68
2022/09/29 10:18:40;;;;;;;1.60;1.30;;;12.90;99.90;;;;;;6014543;29;20988;-66
2022/09/29 10:21:44;;;;;;;2.10;2.00;;;12.90;99.90;;;;;;6014918;29;20476;-68
2022/09/29 10:24:47;;;;;;;1.60;1.50;;;12.90;99.90;;;;;;6014888;29;20593;-67
2022/09/29 10:27:54;;;;;;;1.60;1.50;;;13.00;99.90;;;;;;6014539;29;20479;-66
2022/09/29 10:30:58;;;;;;;1.70;1.60;;;13.00;99.90;;;;;;6014830;29;20437;-66
2022/09/29 10:34:13;;;;;;;2.53;1.43;;;13.10;99.90;;;;;;6015199;29;20448;-67
2022/09/29 10:37:24;;;;;;;1.50;1.40;;;13.20;99.90;;;;;;6015054;29;20492;-68
2022/09/29 10:40:27;;;;;;;1.97;1.87;;;13.00;99.90;;;;;;6014461;29;20493;-67
2022/09/29 10:43:35;;;;;;;3.77;3.47;;;13.00;99.90;;;;;;6014344;29;20546;-67
2022/09/29 10:46:48;;;;;;;6.43;5.93;;;13.00;99.90;;;;;;6014251;29;20968;-67
2022/09/29 10:50:12;;;;;;;11.10;10.00;;;13.10;99.90;;;;;;6020618;23;20862;-68
2022/09/29 10:53:24;;;;;;;11.17;9.97;;;13.10;99.90;;;;;;6014086;29;20549;-68
2022/09/29 10:56:28;;;;;;;10.93;9.90;;;13.20;99.90;;;;;;6014059;29;20488;-68
2022/09/29 10:59:32;;;;;;;9.87;8.87;;;13.10;99.90;;;;;;6014195;29;20899;-69
2022/09/29 11:02:38;;;;;;;11.73;9.73;;;13.20;99.90;;;;;;6014035;29;20553;-69
2022/09/29 11:05:53;;;;;;;8.67;6.23;;;13.20;99.90;;;;;;6014016;29;20504;-68
2022/09/29 11:09:00;;;;;;;3.50;3.20;;;13.30;99.90;;;;;;6013261;29;20491;-70
2022/09/29 11:12:04;;;;;;;5.73;5.23;;;13.10;99.90;;;;;;6013726;29;20841;-69
2022/09/29 11:15:24;;;;;;;8.67;7.80;;;13.10;99.90;;;;;;6001570;29;20492;-68
2022/09/29 11:18:33;;;;;;;4.40;3.57;;;13.10;99.90;;;;;;5990947;29;20485;-66
2022/09/29 11:21:55;;;;;;;3.23;3.03;;;13.10;99.90;;;;;;5990737;29;20488;-71
2022/09/29 11:25:24;;;;;;;3.17;2.87;;;13.10;99.90;;;;;;5991346;29;20454;-69
2022/09/29 11:28:50;;;;;;;5.50;5.00;;;13.40;99.90;;;;;;5989598;29;20489;-70
2022/09/29 11:32:11;;;;;;;3.83;3.40;;;13.40;99.90;;;;;;5998652;29;20840;-68
2022/09/29 11:35:32;;;;;;;3.83;3.43;;;13.50;99.90;;;;;;6006068;29;20480;-67
2022/09/29 11:38:48;;;;;;;4.67;3.90;;;13.60;99.90;;;;;;5989620;29;20525;-67
2022/09/29 11:42:03;;;;;;;3.90;3.50;;;13.60;99.90;;;;;;6006945;29;20495;-67
2022/09/29 11:45:16;;;;;;;2.90;2.70;;;13.60;99.90;;;;;;6011967;29;20491;-68
2022/09/29 11:48:41;;;;;;;2.80;2.30;;;13.60;99.90;;;;;;6012404;29;20484;-69
2022/09/29 11:52:01;;;;;;;2.00;1.90;;;13.70;99.90;;;;;;6012822;29;20504;-68
2022/09/29 11:55:25;;;;;;;1.80;1.70;;;13.70;99.90;;;;;;6013218;29;20457;-68
2022/09/29 11:58:41;;;;;;;2.77;2.57;;;13.60;99.90;;;;;;6013165;29;20480;-69
2022/09/29 12:01:58;;;;;;;6.03;5.53;;;13.60;99.90;;;;;;6012045;29;20499;-69
2022/09/29 12:05:13;;;;;;;4.83;4.43;;;13.50;99.90;;;;;;6013034;29;20637;-67
2022/09/29 12:08:28;;;;;;;6.30;5.70;;;13.50;99.90;;;;;;6001241;29;20969;-67
2022/09/29 12:11:38;;;;;;;5.57;4.33;;;13.70;99.90;;;;;;6012956;29;20492;-70
2022/09/29 12:15:16;;;;;;;2.60;2.40;;;13.90;99.90;;;;;;6013068;29;20949;-69
2022/09/29 12:18:24;;;;;;;1.97;1.87;;;14.00;99.90;;;;;;6012435;29;21053;-69
2022/09/29 12:21:32;;;;;;;2.40;2.20;;;14.10;99.90;;;;;;6008417;29;20492;-67
2022/09/29 12:24:38;;;;;;;3.30;3.10;;;14.20;99.90;;;;;;6012339;29;20480;-67
2022/09/29 12:27:45;;;;;;;2.53;2.33;;;14.20;99.90;;;;;;6012127;29;20996;-68
2022/09/29 12:30:56;;;;;;;2.13;2.03;;;14.10;99.90;;;;;;6012100;29;20459;-67
2022/09/29 12:34:03;;;;;;;2.60;2.40;;;14.10;99.90;;;;;;6012045;29;20459;-67
2022/09/29 12:37:13;;;;;;;2.00;1.90;;;14.10;99.90;;;;;;6012091;29;20440;-67
2022/09/29 12:40:22;;;;;;;2.77;2.57;;;14.10;99.90;;;;;;6012363;29;20805;-67
2022/09/29 12:43:30;;;;;;;5.40;4.70;;;14.10;99.90;;;;;;6014211;29;20490;-68
2022/09/29 12:46:38;;;;;;;1.73;1.63;;;14.10;99.90;;;;;;6016093;29;20827;-66
2022/09/29 12:49:55;;;;;;;4.90;4.40;;;14.00;99.90;;;;;;5995896;29;20545;-66
2022/09/29 12:53:05;;;;;;;2.10;1.70;;;14.00;99.90;;;;;;5994185;29;20477;-67
2022/09/29 12:56:20;;;;;;;3.80;3.50;;;14.00;99.90;;;;;;5993766;29;20981;-69
2022/09/29 12:59:33;;;;;;;1.67;1.40;;;13.70;99.90;;;;;;5993722;29;20799;-68
2022/09/29 13:03:01;;;;;;;1.87;1.67;;;13.50;99.90;;;;;;5994171;29;20485;-69
2022/09/29 13:06:24;;;;;;;2.00;1.90;;;13.40;99.90;;;;;;5993173;29;20476;-67
2022/09/29 13:09:47;;;;;;;1.83;1.73;;;13.30;99.90;;;;;;6013167;29;20778;-68
2022/09/29 13:13:24;;;;;;;1.67;1.57;;;13.10;99.90;;;;;;6015665;29;20456;-69
2022/09/29 13:16:51;;;;;;;2.20;2.00;;;13.10;99.90;;;;;;5993706;29;20573;-68
2022/09/29 13:20:22;;;;;;;2.27;2.10;;;13.20;99.90;;;;;;5993588;29;20489;-67
2022/09/29 13:23:51;;;;;;;5.30;2.90;;;13.20;99.90;;;;;;5993230;29;20965;-67
2022/09/29 13:27:30;;;;;;;3.13;2.93;;;13.20;99.90;;;;;;5993083;29;20484;-68
2022/09/29 13:30:36;;;;;;;2.67;2.47;;;13.30;99.90;;;;;;5973306;29;20799;-68
2022/09/29 13:33:41;;;;;;;3.10;2.63;;;13.40;99.90;;;;;;6003039;29;20490;-69
2022/09/29 13:36:46;;;;;;;3.10;2.23;;;13.30;99.90;;;;;;6016107;29;20476;-68
2022/09/29 13:39:57;;;;;;;2.40;1.80;;;13.40;99.90;;;;;;6015133;29;20483;-68
2022/09/29 13:43:06;;;;;;;3.10;2.47;;;13.50;99.90;;;;;;6015940;29;20433;-68
2022/09/29 13:46:26;;;;;;;2.10;2.00;;;13.60;99.90;;;;;;6015491;29;20472;-69
2022/09/29 13:49:30;;;;;;;3.70;2.83;;;13.60;99.90;;;;;;6015477;29;20505;-69
2022/09/29 13:52:45;;;;;;;2.87;2.60;;;13.70;99.90;;;;;;6015533;29;20483;-68
2022/09/29 13:55:50;;;;;;;4.93;2.67;;;13.70;99.90;;;;;;6015976;29;20500;-66
2022/09/29 13:58:59;;;;;;;2.43;2.23;;;13.80;99.90;;;;;;6015993;29;20480;-67
2022/09/29 14:02:17;;;;;;;2.23;2.03;;;13.80;99.90;;;;;;6015415;29;20491;-67
2022/09/29 14:05:45;;;;;;;3.23;3.03;;;13.90;99.90;;;;;;6015540;29;21003;-68
2022/09/29 14:08:53;;;;;;;2.70;2.43;;;14.10;99.90;;;;;;6014999;29;20484;-68
2022/09/29 14:12:01;;;;;;;3.23;3.03;;;14.10;99.90;;;;;;6015289;29;20825;-68
2022/09/29 14:15:07;;;;;;;3.40;3.20;;;14.10;99.90;;;;;;6015041;29;20488;-69
2022/09/29 14:18:20;;;;;;;3.73;3.20;;;14.00;99.90;;;;;;6015016;29;20499;-68
2022/09/29 14:21:47;;;;;;;5.10;3.70;;;13.90;99.90;;;;;;6014407;29;21040;-68
2022/09/29 14:24:54;;;;;;;3.67;3.23;;;13.80;99.90;;;;;;6014857;29;20460;-68
2022/09/29 14:28:05;;;;;;;4.00;3.67;;;13.70;99.90;;;;;;6006070;29;20563;-69
2022/09/29 14:31:21;;;;;;;4.10;3.80;;;13.70;99.90;;;;;;6014901;29;20481;-67
2022/09/29 14:34:29;;;;;;;3.70;3.40;;;13.60;99.90;;;;;;6014981;29;20492;-66
2022/09/29 14:37:32;;;;;;;4.03;3.73;;;13.50;99.90;;;;;;6014743;29;20491;-69
2022/09/29 14:40:37;;;;;;;4.00;3.70;;;13.50;99.90;;;;;;6016045;29;20522;-68
2022/09/29 14:43:44;;;;;;;3.57;3.27;;;13.40;99.90;;;;;;6018299;29;20481;-68
2022/09/29 14:54:11;;;;;;;8.20;3.53;;;13.50;99.90;;;;;;6014012;29;20556;-68
2022/09/29 14:57:33;;;;;;;3.80;3.47;;;13.50;99.90;;;;;;6013520;29;20484;-68
2022/09/29 15:00:52;;;;;;;4.13;3.83;;;13.50;99.90;;;;;;6013078;29;20501;-65
2022/09/29 15:03:58;;;;;;;3.97;3.00;;;13.60;99.90;;;;;;6013933;29;20460;-65
2022/09/29 15:07:04;;;;;;;3.73;3.43;;;13.70;99.90;;;;;;6011132;29;20981;-67
2022/09/29 15:10:22;;;;;;;3.20;3.00;;;13.70;99.90;;;;;;6013503;29;20453;-65
2022/09/29 15:13:30;;;;;;;4.23;3.77;;;13.60;99.90;;;;;;6013449;29;20476;-68
2022/09/29 15:16:43;;;;;;;4.27;3.97;;;13.70;99.90;;;;;;6013500;29;20494;-69
2022/09/29 15:19:53;;;;;;;3.77;3.47;;;13.70;99.90;;;;;;6013497;29;20488;-71
2022/09/29 15:23:40;;;;;;;3.57;2.80;;;13.80;99.90;;;;;;6013269;29;20488;-68
2022/09/29 15:26:45;;;;;;;5.00;3.97;;;13.80;99.90;;;;;;6013754;29;20487;-67
2022/09/29 15:29:55;;;;;;;14.80;10.60;;;13.80;99.90;;;;;;6013057;29;20495;-70
2022/09/29 15:33:17;;;;;;;7.13;6.53;;;13.80;99.90;;;;;;5999852;29;20489;-70
2022/09/29 15:36:23;;;;;;;12.03;10.87;;;13.80;99.90;;;;;;6010964;29;20492;-71
2022/09/29 15:39:48;;;;;;;7.60;6.90;;;13.70;99.90;;;;;;6012870;29;20476;-70
2022/09/29 15:42:54;;;;;;;6.97;5.00;;;13.70;99.90;;;;;;5990659;29;20490;-70
2022/09/29 15:46:02;;;;;;;4.90;4.50;;;13.60;99.90;;;;;;6010664;29;20528;-71
2022/09/29 15:49:10;;;;;;;5.33;4.93;;;13.40;99.90;;;;;;6012722;29;20511;-70
2022/09/29 15:52:16;;;;;;;3.90;3.60;;;13.40;99.90;;;;;;6012871;29;20483;-70
2022/09/29 15:55:22;;;;;;;5.83;5.27;;;13.40;99.90;;;;;;6011202;29;20491;-72
2022/09/29 15:58:42;;;;;;;6.13;5.53;;;13.50;99.90;;;;;;6010928;29;20519;-68
2022/09/29 16:01:46;;;;;;;5.47;4.80;;;13.50;99.90;;;;;;6010525;29;20996;-68
2022/09/29 16:04:53;;;;;;;5.03;4.63;;;13.60;99.90;;;;;;6010696;29;20492;-69
2022/09/29 16:08:02;;;;;;;5.00;4.60;;;13.60;99.90;;;;;;6011477;29;20491;-68
2022/09/29 16:11:08;;;;;;;5.17;4.77;;;13.60;99.90;;;;;;6014368;29;20578;-68
2022/09/29 16:14:19;;;;;;;4.23;3.93;;;13.70;99.90;;;;;;6013075;29;20480;-69
2022/09/29 16:17:25;;;;;;;6.13;5.43;;;13.70;99.90;;;;;;6014375;29;20500;-67
2022/09/29 16:20:30;;;;;;;5.03;4.63;;;13.70;99.90;;;;;;6016658;29;20984;-67
2022/09/29 16:23:37;;;;;;;13.93;12.47;;;13.60;99.90;;;;;;6017457;29;20777;-70
2022/09/29 16:26:43;;;;;;;10.80;9.70;;;13.60;99.90;;;;;;6019088;29;20877;-68
2022/09/29 16:29:46;;;;;;;8.90;7.70;;;13.50;99.90;;;;;;6018520;29;20480;-69
2022/09/29 16:33:01;;;;;;;8.03;7.23;;;13.60;99.90;;;;;;6012236;29;20492;-68